sensor_id;sensor_type;location;lat;lon;timestamp;pressure;altitude;pressure_sealevel;temperature;humidity
10948;BME280;5526;42.070;24.752;2022-11-20T00:00:51;98363.31;;;15.04;100.00
10948;BME280;5526;42.070;24.752;2022-11-20T00:03:21;98381.84;;;15.04;100.00
10948;BME280;5526;42.070;24.752;2022-11-20T00:05:49;98338.31;;;14.69;100.00
10948;BME280;5526;42.070;24.752;2022-11-20T00:08:17;98367.53;;;14.91;100.00
10948;BME280;5526;42.070;24.752;2022-11-20T00:10:44;98371.84;;;15.01;100.00
10948;BME280;5526;42.070;24.752;2022-11-20T00:13:12;98332.34;;;14.77;100.00
10948;BME280;5526;42.070;24.752;2022-11-20T00:15:39;98342.25;;;14.85;100.00
10948;BME280;5526;42.070;24.752;2022-11-20T00:18:07;98393.50;;;15.16;100.00
10948;BME280;5526;42.070;24.752;2022-11-20T00:20:36;98336.84;;;14.63;100.00
10948;BME280;5526;42.070;24.752;2022-11-20T00:23:03;98390.69;;;14.99;100.00
10948;BME280;5526;42.070;24.752;2022-11-20T00:25:33;98369.06;;;15.06;100.00
10948;BME280;5526;42.070;24.752;2022-11-20T00:28:01;98357.44;;;14.93;100.00
10948;BME280;5526;42.070;24.752;2022-11-20T00:30:29;98390.75;;;15.21;100.00
10948;BME280;5526;42.070;24.752;2022-11-20T00:32:56;98345.47;;;14.96;100.00
10948;BME280;5526;42.070;24.752;2022-11-20T00:35:24;98406.09;;;15.38;100.00
10948;BME280;5526;42.070;24.752;2022-11-20T00:37:53;98335.41;;;15.06;100.00
10948;BME280;5526;42.070;24.752;2022-11-20T00:40:21;98384.06;;;15.37;100.00
10948;BME280;5526;42.070;24.752;2022-11-20T00:42:48;98340.69;;;15.20;100.00
10948;BME280;5526;42.070;24.752;2022-11-20T00:45:16;98401.94;;;15.32;100.00
10948;BME280;5526;42.070;24.752;2022-11-20T00:47:43;98334.47;;;14.89;100.00
10948;BME280;5526;42.070;24.752;2022-11-20T00:50:11;98373.41;;;15.02;100.00
10948;BME280;5526;42.070;24.752;2022-11-20T00:52:38;98360.06;;;15.07;100.00
10948;BME280;5526;42.070;24.752;2022-11-20T00:55:07;98361.75;;;15.03;100.00
10948;BME280;5526;42.070;24.752;2022-11-20T00:57:35;98380.56;;;15.15;100.00
10948;BME280;5526;42.070;24.752;2022-11-20T01:00:03;98409.50;;;15.25;100.00
10948;BME280;5526;42.070;24.752;2022-11-20T01:02:31;98402.44;;;15.20;100.00
10948;BME280;5526;42.070;24.752;2022-11-20T01:04:59;98431.97;;;15.27;100.00
10948;BME280;5526;42.070;24.752;2022-11-20T01:07:26;98349.09;;;14.86;100.00
10948;BME280;5526;42.070;24.752;2022-11-20T01:09:54;98392.63;;;15.21;100.00
10948;BME280;5526;42.070;24.752;2022-11-20T01:12:23;98316.09;;;14.92;100.00
10948;BME280;5526;42.070;24.752;2022-11-20T01:14:51;98331.25;;;14.92;100.00
10948;BME280;5526;42.070;24.752;2022-11-20T01:17:18;98362.81;;;14.88;100.00
10948;BME280;5526;42.070;24.752;2022-11-20T01:19:49;98390.09;;;15.02;100.00
10948;BME280;5526;42.070;24.752;2022-11-20T01:22:17;98367.81;;;14.90;100.00
10948;BME280;5526;42.070;24.752;2022-11-20T01:24:44;98321.34;;;14.70;100.00
10948;BME280;5526;42.070;24.752;2022-11-20T01:27:12;98401.16;;;15.18;100.00
10948;BME280;5526;42.070;24.752;2022-11-20T01:29:41;98321.06;;;14.72;100.00
10948;BME280;5526;42.070;24.752;2022-11-20T01:32:08;98342.00;;;14.95;100.00
10948;BME280;5526;42.070;24.752;2022-11-20T01:34:36;98312.13;;;14.81;100.00
10948;BME280;5526;42.070;24.752;2022-11-20T01:37:03;98382.22;;;15.24;100.00
10948;BME280;5526;42.070;24.752;2022-11-20T01:39:31;98376.59;;;15.26;100.00
10948;BME280;5526;42.070;24.752;2022-11-20T01:41:59;98317.91;;;14.83;100.00
10948;BME280;5526;42.070;24.752;2022-11-20T01:44:48;98299.19;;;14.80;100.00
10948;BME280;5526;42.070;24.752;2022-11-20T01:47:20;98322.66;;;14.95;100.00
10948;BME280;5526;42.070;24.752;2022-11-20T01:49:52;98318.38;;;14.99;100.00
10948;BME280;5526;42.070;24.752;2022-11-20T01:52:26;98325.25;;;14.86;100.00
10948;BME280;5526;42.070;24.752;2022-11-20T01:55:02;98289.56;;;14.70;100.00
10948;BME280;5526;42.070;24.752;2022-11-20T01:57:32;98316.91;;;14.93;100.00
10948;BME280;5526;42.070;24.752;2022-11-20T02:00:08;98362.06;;;15.23;100.00
10948;BME280;5526;42.070;24.752;2022-11-20T02:02:37;98301.28;;;14.91;100.00
10948;BME280;5526;42.070;24.752;2022-11-20T02:05:18;98311.41;;;15.03;100.00
10948;BME280;5526;42.070;24.752;2022-11-20T02:07:47;98324.50;;;15.21;100.00
10948;BME280;5526;42.070;24.752;2022-11-20T02:10:16;98276.38;;;14.92;100.00
10948;BME280;5526;42.070;24.752;2022-11-20T02:12:43;98273.25;;;14.90;100.00
10948;BME280;5526;42.070;24.752;2022-11-20T02:15:30;98266.78;;;14.83;100.00
10948;BME280;5526;42.070;24.752;2022-11-20T02:17:59;98292.88;;;14.89;100.00
10948;BME280;5526;42.070;24.752;2022-11-20T02:20:27;98269.06;;;14.76;100.00
10948;BME280;5526;42.070;24.752;2022-11-20T02:22:56;98341.66;;;15.24;100.00
10948;BME280;5526;42.070;24.752;2022-11-20T02:25:27;98320.97;;;15.12;100.00
10948;BME280;5526;42.070;24.752;2022-11-20T02:27:57;98313.63;;;15.09;100.00
10948;BME280;5526;42.070;24.752;2022-11-20T02:30:24;98299.91;;;14.94;100.00
10948;BME280;5526;42.070;24.752;2022-11-20T02:32:52;98271.47;;;14.86;100.00
10948;BME280;5526;42.070;24.752;2022-11-20T02:35:42;98341.53;;;15.29;100.00
10948;BME280;5526;42.070;24.752;2022-11-20T02:38:10;98311.06;;;15.04;100.00
10948;BME280;5526;42.070;24.752;2022-11-20T02:40:39;98325.94;;;15.27;100.00
10948;BME280;5526;42.070;24.752;2022-11-20T02:43:07;98269.38;;;14.96;100.00
10948;BME280;5526;42.070;24.752;2022-11-20T02:45:35;98242.13;;;14.96;100.00
10948;BME280;5526;42.070;24.752;2022-11-20T02:48:05;98273.63;;;15.19;100.00
10948;BME280;5526;42.070;24.752;2022-11-20T02:50:32;98314.72;;;15.44;100.00
10948;BME280;5526;42.070;24.752;2022-11-20T02:53:00;98288.91;;;15.36;100.00
10948;BME280;5526;42.070;24.752;2022-11-20T02:55:28;98240.56;;;15.17;100.00
10948;BME280;5526;42.070;24.752;2022-11-20T02:57:57;98295.94;;;15.54;100.00
10948;BME280;5526;42.070;24.752;2022-11-20T03:00:24;98267.19;;;15.34;100.00
10948;BME280;5526;42.070;24.752;2022-11-20T03:02:52;98302.22;;;15.66;100.00
10948;BME280;5526;42.070;24.752;2022-11-20T03:05:19;98263.66;;;15.60;100.00
10948;BME280;5526;42.070;24.752;2022-11-20T03:07:47;98246.66;;;15.61;100.00
10948;BME280;5526;42.070;24.752;2022-11-20T03:10:14;98278.47;;;16.53;100.00
10948;BME280;5526;42.070;24.752;2022-11-20T03:12:42;98282.53;;;16.59;100.00
10948;BME280;5526;42.070;24.752;2022-11-20T03:15:11;98239.31;;;16.28;100.00
10948;BME280;5526;42.070;24.752;2022-11-20T03:17:38;98305.84;;;16.70;100.00
10948;BME280;5526;42.070;24.752;2022-11-20T03:20:08;98241.97;;;16.36;100.00
10948;BME280;5526;42.070;24.752;2022-11-20T03:22:36;98290.78;;;16.49;100.00
10948;BME280;5526;42.070;24.752;2022-11-20T03:25:04;98239.53;;;16.09;100.00
10948;BME280;5526;42.070;24.752;2022-11-20T03:27:33;98281.34;;;16.34;100.00
10948;BME280;5526;42.070;24.752;2022-11-20T03:30:01;98265.69;;;16.24;100.00
10948;BME280;5526;42.070;24.752;2022-11-20T03:32:30;98225.09;;;15.85;100.00
10948;BME280;5526;42.070;24.752;2022-11-20T03:34:57;98266.22;;;16.04;100.00
10948;BME280;5526;42.070;24.752;2022-11-20T03:37:26;98249.28;;;15.83;100.00
10948;BME280;5526;42.070;24.752;2022-11-20T03:39:53;98295.94;;;15.84;100.00
10948;BME280;5526;42.070;24.752;2022-11-20T03:42:21;98215.47;;;15.36;100.00
10948;BME280;5526;42.070;24.752;2022-11-20T03:45:06;98246.13;;;15.51;100.00
10948;BME280;5526;42.070;24.752;2022-11-20T03:47:35;98295.50;;;15.60;100.00
10948;BME280;5526;42.070;24.752;2022-11-20T03:50:03;98277.00;;;15.47;100.00
10948;BME280;5526;42.070;24.752;2022-11-20T03:52:31;98258.25;;;15.30;100.00
10948;BME280;5526;42.070;24.752;2022-11-20T03:54:58;98270.53;;;15.39;100.00
10948;BME280;5526;42.070;24.752;2022-11-20T03:57:26;98239.22;;;15.06;100.00
10948;BME280;5526;42.070;24.752;2022-11-20T03:59:53;98339.38;;;15.44;100.00
10948;BME280;5526;42.070;24.752;2022-11-20T04:02:21;98299.31;;;14.97;100.00
10948;BME280;5526;42.070;24.752;2022-11-20T04:04:50;98314.44;;;14.83;100.00
10948;BME280;5526;42.070;24.752;2022-11-20T04:07:18;98303.84;;;14.83;100.00
10948;BME280;5526;42.070;24.752;2022-11-20T04:09:46;98329.66;;;14.91;100.00
10948;BME280;5526;42.070;24.752;2022-11-20T04:12:14;98322.03;;;14.76;100.00
10948;BME280;5526;42.070;24.752;2022-11-20T04:14:41;98282.53;;;14.52;100.00
10948;BME280;5526;42.070;24.752;2022-11-20T04:17:09;98262.00;;;14.17;100.00
10948;BME280;5526;42.070;24.752;2022-11-20T04:19:36;98331.44;;;14.68;100.00
10948;BME280;5526;42.070;24.752;2022-11-20T04:22:05;98217.53;;;14.19;100.00
10948;BME280;5526;42.070;24.752;2022-11-20T04:24:33;98268.00;;;14.50;100.00
10948;BME280;5526;42.070;24.752;2022-11-20T04:27:00;98288.38;;;14.63;100.00
10948;BME280;5526;42.070;24.752;2022-11-20T04:29:28;98283.31;;;14.66;100.00
10948;BME280;5526;42.070;24.752;2022-11-20T04:31:56;98271.66;;;14.40;100.00
10948;BME280;5526;42.070;24.752;2022-11-20T04:34:23;98279.88;;;14.39;100.00
10948;BME280;5526;42.070;24.752;2022-11-20T04:36:51;98295.28;;;14.50;100.00
10948;BME280;5526;42.070;24.752;2022-11-20T04:39:20;98271.06;;;14.30;100.00
10948;BME280;5526;42.070;24.752;2022-11-20T04:41:47;98252.16;;;14.23;100.00
10948;BME280;5526;42.070;24.752;2022-11-20T04:44:36;98331.16;;;14.70;100.00
10948;BME280;5526;42.070;24.752;2022-11-20T04:47:03;98330.56;;;14.59;100.00
10948;BME280;5526;42.070;24.752;2022-11-20T04:49:31;98285.47;;;14.37;100.00
10948;BME280;5526;42.070;24.752;2022-11-20T04:51:59;98284.69;;;14.50;100.00
10948;BME280;5526;42.070;24.752;2022-11-20T04:54:28;98265.06;;;14.51;100.00
10948;BME280;5526;42.070;24.752;2022-11-20T04:56:56;98265.25;;;14.41;100.00
10948;BME280;5526;42.070;24.752;2022-11-20T04:59:23;98262.63;;;14.28;100.00
10948;BME280;5526;42.070;24.752;2022-11-20T05:01:51;98346.47;;;14.73;100.00
10948;BME280;5526;42.070;24.752;2022-11-20T05:04:19;98339.38;;;14.68;100.00
10948;BME280;5526;42.070;24.752;2022-11-20T05:06:46;98316.34;;;14.55;100.00
10948;BME280;5526;42.070;24.752;2022-11-20T05:09:14;98270.50;;;14.33;100.00
10948;BME280;5526;42.070;24.752;2022-11-20T05:11:43;98309.78;;;14.53;100.00
10948;BME280;5526;42.070;24.752;2022-11-20T05:14:10;98278.50;;;14.28;100.00
10948;BME280;5526;42.070;24.752;2022-11-20T05:16:38;98300.75;;;14.40;100.00
10948;BME280;5526;42.070;24.752;2022-11-20T05:19:06;98308.81;;;14.49;100.00
10948;BME280;5526;42.070;24.752;2022-11-20T05:21:33;98293.69;;;14.49;100.00
10948;BME280;5526;42.070;24.752;2022-11-20T05:24:01;98290.97;;;14.41;100.00
10948;BME280;5526;42.070;24.752;2022-11-20T05:26:28;98255.38;;;14.33;100.00
10948;BME280;5526;42.070;24.752;2022-11-20T05:28:57;98248.00;;;14.17;100.00
10948;BME280;5526;42.070;24.752;2022-11-20T05:31:25;98353.03;;;14.62;100.00
10948;BME280;5526;42.070;24.752;2022-11-20T05:33:53;98270.53;;;14.14;100.00
10948;BME280;5526;42.070;24.752;2022-11-20T05:36:21;98317.44;;;14.54;100.00
10948;BME280;5526;42.070;24.752;2022-11-20T05:38:48;98350.50;;;15.19;100.00
10948;BME280;5526;42.070;24.752;2022-11-20T05:41:17;98357.16;;;15.44;100.00
10948;BME280;5526;42.070;24.752;2022-11-20T05:43:46;98264.09;;;14.96;100.00
10948;BME280;5526;42.070;24.752;2022-11-20T05:46:19;98287.38;;;15.21;100.00
10948;BME280;5526;42.070;24.752;2022-11-20T05:48:47;98284.78;;;15.08;100.00
10948;BME280;5526;42.070;24.752;2022-11-20T05:51:17;98326.94;;;15.18;100.00
10948;BME280;5526;42.070;24.752;2022-11-20T05:53:45;98337.50;;;15.45;100.00
10948;BME280;5526;42.070;24.752;2022-11-20T05:56:14;98259.09;;;14.95;100.00
10948;BME280;5526;42.070;24.752;2022-11-20T05:58:42;98300.69;;;15.08;100.00
10948;BME280;5526;42.070;24.752;2022-11-20T06:01:12;98300.19;;;15.06;100.00
10948;BME280;5526;42.070;24.752;2022-11-20T06:03:42;98265.22;;;14.82;100.00
10948;BME280;5526;42.070;24.752;2022-11-20T06:06:13;98293.03;;;15.06;100.00
10948;BME280;5526;42.070;24.752;2022-11-20T06:08:41;98344.38;;;15.46;100.00
10948;BME280;5526;42.070;24.752;2022-11-20T06:11:10;98286.72;;;15.16;100.00
10948;BME280;5526;42.070;24.752;2022-11-20T06:13:38;98329.97;;;15.38;100.00
10948;BME280;5526;42.070;24.752;2022-11-20T06:16:06;98352.97;;;15.51;100.00
10948;BME280;5526;42.070;24.752;2022-11-20T06:18:34;98306.38;;;15.37;100.00
10948;BME280;5526;42.070;24.752;2022-11-20T06:21:05;98322.31;;;15.59;100.00
10948;BME280;5526;42.070;24.752;2022-11-20T06:23:35;98286.69;;;15.51;100.00
10948;BME280;5526;42.070;24.752;2022-11-20T06:26:03;98320.25;;;15.78;100.00
10948;BME280;5526;42.070;24.752;2022-11-20T06:28:31;98289.47;;;15.68;100.00
10948;BME280;5526;42.070;24.752;2022-11-20T06:30:59;98352.63;;;16.10;100.00
10948;BME280;5526;42.070;24.752;2022-11-20T06:33:27;98278.25;;;15.71;100.00
10948;BME280;5526;42.070;24.752;2022-11-20T06:35:56;98298.03;;;15.96;100.00
10948;BME280;5526;42.070;24.752;2022-11-20T06:38:26;98338.03;;;16.30;100.00
10948;BME280;5526;42.070;24.752;2022-11-20T06:40:54;98326.94;;;16.36;100.00
10948;BME280;5526;42.070;24.752;2022-11-20T06:43:23;98378.00;;;16.55;100.00
10948;BME280;5526;42.070;24.752;2022-11-20T06:45:52;98343.56;;;16.11;100.00
10948;BME280;5526;42.070;24.752;2022-11-20T06:48:20;98392.81;;;16.48;100.00
10948;BME280;5526;42.070;24.752;2022-11-20T06:50:50;98331.31;;;16.02;100.00
10948;BME280;5526;42.070;24.752;2022-11-20T06:53:19;98335.09;;;16.09;100.00
10948;BME280;5526;42.070;24.752;2022-11-20T06:55:50;98389.28;;;16.39;100.00
10948;BME280;5526;42.070;24.752;2022-11-20T06:58:18;98368.94;;;16.26;100.00
10948;BME280;5526;42.070;24.752;2022-11-20T07:00:45;98328.97;;;16.00;100.00
10948;BME280;5526;42.070;24.752;2022-11-20T07:03:13;98314.59;;;15.93;100.00
10948;BME280;5526;42.070;24.752;2022-11-20T07:05:40;98320.53;;;15.98;100.00
10948;BME280;5526;42.070;24.752;2022-11-20T07:08:09;98354.47;;;16.10;100.00
10948;BME280;5526;42.070;24.752;2022-11-20T07:10:37;98333.69;;;16.03;100.00
10948;BME280;5526;42.070;24.752;2022-11-20T07:13:06;98290.00;;;15.79;100.00
10948;BME280;5526;42.070;24.752;2022-11-20T07:15:34;98319.34;;;15.82;100.00
10948;BME280;5526;42.070;24.752;2022-11-20T07:18:02;98327.84;;;15.93;100.00
10948;BME280;5526;42.070;24.752;2022-11-20T07:20:30;98387.22;;;16.27;100.00
10948;BME280;5526;42.070;24.752;2022-11-20T07:22:58;98361.63;;;16.01;100.00
10948;BME280;5526;42.070;24.752;2022-11-20T07:25:27;98328.38;;;15.81;100.00
10948;BME280;5526;42.070;24.752;2022-11-20T07:27:57;98335.81;;;15.93;100.00
10948;BME280;5526;42.070;24.752;2022-11-20T07:30:26;98318.06;;;15.80;100.00
10948;BME280;5526;42.070;24.752;2022-11-20T07:32:54;98351.66;;;16.06;100.00
10948;BME280;5526;42.070;24.752;2022-11-20T07:35:22;98337.31;;;16.16;100.00
10948;BME280;5526;42.070;24.752;2022-11-20T07:37:51;98357.81;;;16.46;100.00
10948;BME280;5526;42.070;24.752;2022-11-20T07:40:19;98361.25;;;16.55;100.00
10948;BME280;5526;42.070;24.752;2022-11-20T07:42:50;98409.25;;;16.98;100.00
10948;BME280;5526;42.070;24.752;2022-11-20T07:45:18;98395.66;;;16.99;100.00
10948;BME280;5526;42.070;24.752;2022-11-20T07:47:47;98323.34;;;16.71;100.00
10948;BME280;5526;42.070;24.752;2022-11-20T07:50:16;98398.72;;;17.32;100.00
10948;BME280;5526;42.070;24.752;2022-11-20T07:52:43;98405.00;;;17.44;100.00
10948;BME280;5526;42.070;24.752;2022-11-20T07:55:11;98326.09;;;17.06;100.00
10948;BME280;5526;42.070;24.752;2022-11-20T07:57:39;98370.81;;;17.12;100.00
10948;BME280;5526;42.070;24.752;2022-11-20T08:00:08;98350.28;;;16.95;100.00
10948;BME280;5526;42.070;24.752;2022-11-20T08:02:37;98366.09;;;16.92;100.00
10948;BME280;5526;42.070;24.752;2022-11-20T08:05:08;98358.41;;;16.90;100.00
10948;BME280;5526;42.070;24.752;2022-11-20T08:07:36;98428.25;;;17.22;100.00
10948;BME280;5526;42.070;24.752;2022-11-20T08:10:05;98426.81;;;17.16;100.00
10948;BME280;5526;42.070;24.752;2022-11-20T08:12:33;98425.50;;;17.44;100.00
10948;BME280;5526;42.070;24.752;2022-11-20T08:15:18;98340.63;;;17.25;100.00
10948;BME280;5526;42.070;24.752;2022-11-20T08:17:45;98397.34;;;17.85;100.00
10948;BME280;5526;42.070;24.752;2022-11-20T08:20:15;98359.28;;;17.93;100.00
10948;BME280;5526;42.070;24.752;2022-11-20T08:22:42;98389.41;;;18.31;100.00
10948;BME280;5526;42.070;24.752;2022-11-20T08:25:10;98354.47;;;18.41;100.00
10948;BME280;5526;42.070;24.752;2022-11-20T08:27:37;98395.53;;;18.78;100.00
10948;BME280;5526;42.070;24.752;2022-11-20T08:30:07;98404.84;;;19.01;100.00
10948;BME280;5526;42.070;24.752;2022-11-20T08:32:35;98409.44;;;19.21;100.00
10948;BME280;5526;42.070;24.752;2022-11-20T08:35:04;98356.78;;;19.09;100.00
10948;BME280;5526;42.070;24.752;2022-11-20T08:37:33;98349.03;;;19.16;100.00
10948;BME280;5526;42.070;24.752;2022-11-20T08:40:01;98372.56;;;19.43;100.00
10948;BME280;5526;42.070;24.752;2022-11-20T08:42:28;98328.91;;;19.27;100.00
10948;BME280;5526;42.070;24.752;2022-11-20T08:44:56;98372.63;;;19.76;100.00
10948;BME280;5526;42.070;24.752;2022-11-20T08:47:23;98367.97;;;19.85;99.40
10948;BME280;5526;42.070;24.752;2022-11-20T08:49:52;98382.72;;;19.91;99.34
10948;BME280;5526;42.070;24.752;2022-11-20T08:52:19;98340.06;;;19.82;99.82
10948;BME280;5526;42.070;24.752;2022-11-20T08:54:48;98330.19;;;19.95;99.24
10948;BME280;5526;42.070;24.752;2022-11-20T08:57:16;98384.75;;;20.38;98.93
10948;BME280;5526;42.070;24.752;2022-11-20T08:59:43;98332.84;;;20.15;98.02
10948;BME280;5526;42.070;24.752;2022-11-20T09:02:11;98385.84;;;20.37;97.27
10948;BME280;5526;42.070;24.752;2022-11-20T09:04:39;98328.59;;;20.14;96.63
10948;BME280;5526;42.070;24.752;2022-11-20T09:07:06;98352.47;;;20.31;97.21
10948;BME280;5526;42.070;24.752;2022-11-20T09:09:34;98309.59;;;20.07;96.22
10948;BME280;5526;42.070;24.752;2022-11-20T09:12:03;98353.69;;;20.34;94.60
10948;BME280;5526;42.070;24.752;2022-11-20T09:14:31;98297.91;;;20.00;95.10
10948;BME280;5526;42.070;24.752;2022-11-20T09:16:59;98294.38;;;20.08;95.12
10948;BME280;5526;42.070;24.752;2022-11-20T09:19:27;98344.69;;;20.62;94.80
10948;BME280;5526;42.070;24.752;2022-11-20T09:21:54;98293.44;;;20.60;93.06
10948;BME280;5526;42.070;24.752;2022-11-20T09:24:22;98360.06;;;21.53;88.31
10948;BME280;5526;42.070;24.752;2022-11-20T09:26:49;98337.63;;;21.58;85.23
10948;BME280;5526;42.070;24.752;2022-11-20T09:29:18;98301.34;;;21.33;80.22
10948;BME280;5526;42.070;24.752;2022-11-20T09:31:46;98296.50;;;21.11;85.25
10948;BME280;5526;42.070;24.752;2022-11-20T09:34:14;98312.22;;;21.12;87.25
10948;BME280;5526;42.070;24.752;2022-11-20T09:36:41;98319.75;;;21.34;87.14
10948;BME280;5526;42.070;24.752;2022-11-20T09:39:09;98287.94;;;21.05;85.44
10948;BME280;5526;42.070;24.752;2022-11-20T09:41:56;98357.19;;;21.86;84.46
10948;BME280;5526;42.070;24.752;2022-11-20T09:44:39;98287.41;;;21.39;86.17
10948;BME280;5526;42.070;24.752;2022-11-20T09:47:11;98324.31;;;21.73;85.31
10948;BME280;5526;42.070;24.752;2022-11-20T09:49:55;98271.94;;;21.21;85.29
10948;BME280;5526;42.070;24.752;2022-11-20T09:52:33;98278.78;;;21.46;84.92
10948;BME280;5526;42.070;24.752;2022-11-20T09:55:09;98310.25;;;21.76;84.90
10948;BME280;5526;42.070;24.752;2022-11-20T09:57:40;98300.50;;;21.99;83.28
10948;BME280;5526;42.070;24.752;2022-11-20T10:00:13;98277.25;;;22.03;81.61
10948;BME280;5526;42.070;24.752;2022-11-20T10:02:44;98293.19;;;22.58;79.35
10948;BME280;5526;42.070;24.752;2022-11-20T10:05:18;98291.13;;;22.86;77.96
10948;BME280;5526;42.070;24.752;2022-11-20T10:07:52;98319.44;;;23.34;76.58
10948;BME280;5526;42.070;24.752;2022-11-20T10:10:29;98254.63;;;23.35;74.93
10948;BME280;5526;42.070;24.752;2022-11-20T10:13:11;98302.84;;;23.89;70.61
10948;BME280;5526;42.070;24.752;2022-11-20T10:15:52;98271.50;;;23.55;71.62
10948;BME280;5526;42.070;24.752;2022-11-20T10:18:28;98276.88;;;23.55;69.78
10948;BME280;5526;42.070;24.752;2022-11-20T10:21:07;98252.47;;;23.63;70.40
10948;BME280;5526;42.070;24.752;2022-11-20T10:23:57;98263.75;;;23.91;69.90
10948;BME280;5526;42.070;24.752;2022-11-20T10:26:35;98300.09;;;24.27;70.09
10948;BME280;5526;42.070;24.752;2022-11-20T10:29:11;98276.69;;;24.53;69.50
10948;BME280;5526;42.070;24.752;2022-11-20T10:31:43;98241.25;;;24.74;68.56
10948;BME280;5526;42.070;24.752;2022-11-20T10:34:18;98278.56;;;25.31;67.15
10948;BME280;5526;42.070;24.752;2022-11-20T10:36:54;98201.84;;;24.89;65.86
10948;BME280;5526;42.070;24.752;2022-11-20T10:39:28;98221.47;;;25.19;66.59
10948;BME280;5526;42.070;24.752;2022-11-20T10:41:59;98209.53;;;25.20;66.92
10948;BME280;5526;42.070;24.752;2022-11-20T10:44:29;98249.69;;;25.65;64.98
10948;BME280;5526;42.070;24.752;2022-11-20T10:47:17;98185.63;;;25.48;62.09
10948;BME280;5526;42.070;24.752;2022-11-20T10:49:48;98169.28;;;25.34;60.47
10948;BME280;5526;42.070;24.752;2022-11-20T10:52:23;98182.69;;;25.27;59.69
10948;BME280;5526;42.070;24.752;2022-11-20T10:55:01;98201.13;;;25.25;60.84
10948;BME280;5526;42.070;24.752;2022-11-20T10:57:46;98213.63;;;25.40;60.35
10948;BME280;5526;42.070;24.752;2022-11-20T11:00:17;98181.38;;;25.14;59.12
10948;BME280;5526;42.070;24.752;2022-11-20T11:02:48;98186.53;;;24.96;59.58
10948;BME280;5526;42.070;24.752;2022-11-20T11:05:27;98162.88;;;24.23;62.12
10948;BME280;5526;42.070;24.752;2022-11-20T11:07:59;98147.75;;;24.15;63.30
10948;BME280;5526;42.070;24.752;2022-11-20T11:10:35;98212.41;;;24.22;64.90
10948;BME280;5526;42.070;24.752;2022-11-20T11:13:03;98157.50;;;23.97;66.20
10948;BME280;5526;42.070;24.752;2022-11-20T11:15:38;98191.16;;;24.14;66.73
10948;BME280;5526;42.070;24.752;2022-11-20T11:18:09;98198.84;;;24.15;68.27
10948;BME280;5526;42.070;24.752;2022-11-20T11:20:37;98138.38;;;23.80;69.51
10948;BME280;5526;42.070;24.752;2022-11-20T11:23:05;98172.72;;;23.67;71.62
10948;BME280;5526;42.070;24.752;2022-11-20T11:25:38;98133.59;;;23.47;72.38
10948;BME280;5526;42.070;24.752;2022-11-20T11:28:20;98136.03;;;23.33;73.11
10948;BME280;5526;42.070;24.752;2022-11-20T11:30:48;98198.81;;;23.48;73.71
10948;BME280;5526;42.070;24.752;2022-11-20T11:33:21;98175.63;;;23.36;74.25
10948;BME280;5526;42.070;24.752;2022-11-20T11:35:50;98151.44;;;23.36;74.39
10948;BME280;5526;42.070;24.752;2022-11-20T11:38:23;98145.38;;;23.39;75.02
10948;BME280;5526;42.070;24.752;2022-11-20T11:40:56;98148.19;;;23.46;75.18
10948;BME280;5526;42.070;24.752;2022-11-20T11:43:26;98153.97;;;23.48;74.86
10948;BME280;5526;42.070;24.752;2022-11-20T11:46:27;98228.78;;;23.69;76.29
10948;BME280;5526;42.070;24.752;2022-11-20T11:49:08;98197.53;;;23.83;68.21
10948;BME280;5526;42.070;24.752;2022-11-20T11:51:45;98146.59;;;23.90;63.12
10948;BME280;5526;42.070;24.752;2022-11-20T11:54:17;98147.38;;;24.13;63.05
10948;BME280;5526;42.070;24.752;2022-11-20T11:56:47;98190.69;;;24.61;61.20
10948;BME280;5526;42.070;24.752;2022-11-20T11:59:21;98116.78;;;24.25;59.60
10948;BME280;5526;42.070;24.752;2022-11-20T12:01:55;98168.84;;;24.39;58.84
10948;BME280;5526;42.070;24.752;2022-11-20T12:04:40;98144.09;;;24.01;55.04
10948;BME280;5526;42.070;24.752;2022-11-20T12:07:13;98138.97;;;23.70;58.76
10948;BME280;5526;42.070;24.752;2022-11-20T12:09:48;98167.91;;;23.57;60.87
10948;BME280;5526;42.070;24.752;2022-11-20T12:12:20;98118.94;;;23.64;60.50
10948;BME280;5526;42.070;24.752;2022-11-20T12:14:49;98178.03;;;24.09;60.40
10948;BME280;5526;42.070;24.752;2022-11-20T12:17:20;98137.53;;;23.76;60.25
10948;BME280;5526;42.070;24.752;2022-11-20T12:19:49;98157.78;;;23.92;60.00
10948;BME280;5526;42.070;24.752;2022-11-20T12:22:23;98122.72;;;23.63;59.65
10948;BME280;5526;42.070;24.752;2022-11-20T12:24:59;98154.09;;;23.55;59.92
10948;BME280;5526;42.070;24.752;2022-11-20T12:27:43;98086.03;;;23.06;59.39
10948;BME280;5526;42.070;24.752;2022-11-20T12:30:15;98124.09;;;23.31;60.37
10948;BME280;5526;42.070;24.752;2022-11-20T12:33:00;98139.38;;;23.49;61.20
10948;BME280;5526;42.070;24.752;2022-11-20T12:35:53;98129.97;;;23.36;55.29
10948;BME280;5526;42.070;24.752;2022-11-20T12:38:50;98163.34;;;23.58;54.58
10948;BME280;5526;42.070;24.752;2022-11-20T12:41:37;98164.97;;;23.88;55.90
10948;BME280;5526;42.070;24.752;2022-11-20T12:44:36;98101.59;;;23.61;54.99
10948;BME280;5526;42.070;24.752;2022-11-20T12:47:29;98124.31;;;23.90;53.50
10948;BME280;5526;42.070;24.752;2022-11-20T12:50:08;98120.22;;;23.73;53.88
10948;BME280;5526;42.070;24.752;2022-11-20T12:52:46;98131.50;;;23.82;54.30
10948;BME280;5526;42.070;24.752;2022-11-20T12:55:21;98114.91;;;23.77;54.48
10948;BME280;5526;42.070;24.752;2022-11-20T12:57:57;98167.72;;;24.14;54.22
10948;BME280;5526;42.070;24.752;2022-11-20T13:00:25;98164.06;;;24.00;53.08
10948;BME280;5526;42.070;24.752;2022-11-20T13:06:11;98115.66;;;23.29;51.18
10948;BME280;5526;42.070;24.752;2022-11-20T13:08:43;98137.72;;;23.41;52.57
10948;BME280;5526;42.070;24.752;2022-11-20T13:11:19;98105.19;;;23.05;53.24
10948;BME280;5526;42.070;24.752;2022-11-20T13:14:11;98200.88;;;23.54;53.88